SASJ/JUJ METAR and TAF weather

Enter ICAO airport designator
Station Type Date Time Source
SASJ METAR 2022/01/29 09:00 UTC NOAA

SASJ 290900Z 29003KT 270V330 9999 SCT023 BKN050 18/17 Q1015 RMK PP000


Station Type Date Time Source
SASJ Decoded METAR 2022/01/29 09:00 UTC NOAA

Jujuy Aerodrome, Argentina (SASJ) 24-23S 065-05W 905M
Jan 29, 2022 - 04:00 AM EST / 2022.01.29 0900 UTC
Wind: from the WNW (290 degrees) at 3 MPH (3 KT) (direction variable):0
Visibility: greater than 7 mile(s):0
Sky conditions: mostly cloudy
Temperature: 64 F (18 C)
Dew Point: 62 F (17 C)
Relative Humidity: 93%
Pressure (altimeter): 29.97 in. Hg (1015 hPa)
ob: SASJ 290900Z 29003KT 270V330 9999 SCT023 BKN050 18/17 Q1015 RMK PP000
cycle: 9

Station Type Date Time Source
SASJ TAF 2022/01/29 06:18 UTC NOAA

TAF SASJ 290500Z 2906/3006 VRB02KT 9999 SCT030 BKN040 TX29/2918Z TN17/2909Z PROB40 2900/2903 23005KT 7000 RA SCT020 OVC035
BECMG 2914/2917 07010KT 9999 SCT035

Example: see airport list